Time;durP1;ratioP1;P1;durP2;ratioP2;P2;SDS_P1;SDS_P2;PMS_P1;PMS_P2;Temp;Humidity;BMP_temperature;BMP_pressure;BME280_temperature;BME280_humidity;BME280_pressure;Samples;Min_cycle;Max_cycle;Signal;HPM_P1;HPM_P2
2021/10/02 00:31:05;;;;;;;4.17;3.00;;;11.80;99.90;;;;;;5069485;28;20689;-62
2021/10/02 00:35:36;;;;;;;3.60;2.70;;;12.20;99.90;;;;;;5069003;28;20660;-63
2021/10/02 00:38:14;;;;;;;4.30;3.13;;;12.20;99.90;;;;;;5069056;28;20173;-63
2021/10/02 00:46:14;;;;;;;2.83;2.60;;;12.30;99.90;;;;;;5068656;28;20593;-62
2021/10/02 00:48:42;;;;;;;3.40;3.10;;;12.30;99.90;;;;;;5068803;28;20188;-61
2021/10/02 00:51:11;;;;;;;2.80;2.60;;;12.30;99.90;;;;;;5068888;28;20235;-62
2021/10/02 00:53:40;;;;;;;4.90;3.17;;;12.30;99.90;;;;;;5068394;28;20292;-62
2021/10/02 00:56:08;;;;;;;5.47;3.30;;;12.40;99.90;;;;;;5068763;28;20246;-62
2021/10/02 00:58:36;;;;;;;3.23;2.50;;;12.30;99.90;;;;;;5076450;28;20203;-62
2021/10/02 01:01:05;;;;;;;2.97;2.63;;;12.30;99.90;;;;;;5075461;28;20288;-62
2021/10/02 01:03:43;;;;;;;3.37;2.73;;;12.20;99.90;;;;;;5075261;28;20283;-62
2021/10/02 01:06:30;;;;;;;3.07;2.77;;;12.20;99.90;;;;;;5075210;28;20746;-62
2021/10/02 01:09:08;;;;;;;3.93;2.87;;;12.20;99.90;;;;;;5055103;28;20269;-63
2021/10/02 01:11:46;;;;;;;3.33;2.90;;;12.10;99.90;;;;;;5055213;28;20192;-63
2021/10/02 01:14:20;;;;;;;4.10;3.30;;;12.10;99.90;;;;;;5055512;28;20249;-61
2021/10/02 01:16:52;;;;;;;3.73;3.13;;;12.00;99.90;;;;;;5055026;28;20269;-62
2021/10/02 01:19:37;;;;;;;3.20;2.90;;;12.00;99.90;;;;;;5055157;28;20221;-62
2021/10/02 01:22:15;;;;;;;2.77;2.57;;;12.00;99.90;;;;;;5054555;28;20647;-62
2021/10/02 01:25:02;;;;;;;3.70;3.00;;;11.90;99.90;;;;;;5055054;28;20284;-62
2021/10/02 01:27:49;;;;;;;3.87;2.73;;;11.90;99.90;;;;;;5054864;28;20296;-62
2021/10/02 01:30:26;;;;;;;3.63;2.90;;;11.90;99.90;;;;;;5055040;28;20182;-62
2021/10/02 01:33:05;;;;;;;2.93;2.63;;;11.80;99.90;;;;;;5054551;28;20280;-63
2021/10/02 01:35:41;;;;;;;3.30;2.97;;;11.80;99.90;;;;;;5054876;28;20209;-63
2021/10/02 01:49:32;;;;;;;3.30;2.77;;;11.70;99.90;;;;;;5054445;28;20208;-63
2021/10/02 01:52:00;;;;;;;2.80;2.60;;;11.70;99.90;;;;;;5054083;28;20407;-61
2021/10/02 01:54:30;;;;;;;3.57;2.90;;;11.70;99.90;;;;;;5054536;28;20201;-62
2021/10/02 01:56:59;;;;;;;3.57;3.00;;;11.60;99.90;;;;;;5054231;28;20591;-63
2021/10/02 01:59:33;;;;;;;3.90;3.00;;;11.60;99.90;;;;;;5054907;28;20288;-61
2021/10/02 02:02:02;;;;;;;3.20;2.90;;;11.60;99.90;;;;;;5054732;28;20807;-63
2021/10/02 02:04:32;;;;;;;3.27;2.97;;;11.60;99.90;;;;;;5054374;28;20212;-62
2021/10/02 02:07:01;;;;;;;4.63;3.00;;;11.70;99.90;;;;;;5054055;28;20248;-62
2021/10/02 02:09:37;;;;;;;3.57;2.90;;;11.70;99.90;;;;;;5053625;28;20319;-63
2021/10/02 02:12:07;;;;;;;4.10;3.40;;;11.70;99.90;;;;;;5053867;28;20221;-62
2021/10/02 02:14:40;;;;;;;3.43;3.13;;;11.70;99.90;;;;;;5054154;28;20185;-63
2021/10/02 02:17:09;;;;;;;3.37;3.00;;;11.80;99.90;;;;;;5053828;28;20622;-62
2021/10/02 02:19:37;;;;;;;3.40;2.80;;;11.70;99.90;;;;;;5053798;28;20740;-62
2021/10/02 02:22:06;;;;;;;4.07;3.20;;;11.70;99.90;;;;;;5053751;28;20203;-62
2021/10/02 02:24:34;;;;;;;3.47;2.83;;;11.70;99.90;;;;;;5053648;28;20197;-62
2021/10/02 02:27:04;;;;;;;4.67;3.20;;;11.70;99.90;;;;;;5053661;28;20798;-63
2021/10/02 02:29:33;;;;;;;5.73;3.47;;;11.70;99.90;;;;;;5053915;28;20247;-62
2021/10/02 02:32:03;;;;;;;4.00;3.30;;;11.70;99.90;;;;;;5053287;28;20687;-62
2021/10/02 02:34:31;;;;;;;3.60;3.20;;;11.70;99.90;;;;;;5053840;28;20185;-62
2021/10/02 02:37:00;;;;;;;3.30;3.00;;;11.70;99.90;;;;;;5053294;28;20736;-62
2021/10/02 02:39:28;;;;;;;3.57;3.20;;;11.70;99.90;;;;;;5053550;28;20231;-62
2021/10/02 02:41:56;;;;;;;4.37;3.33;;;11.70;99.90;;;;;;5053335;28;20244;-61
2021/10/02 02:44:26;;;;;;;5.67;3.70;;;11.80;99.90;;;;;;5053496;28;20206;-62
2021/10/02 02:46:56;;;;;;;3.87;3.20;;;11.80;99.90;;;;;;5052738;28;20324;-63
2021/10/02 02:49:35;;;;;;;4.10;3.23;;;11.70;99.90;;;;;;5053341;28;20209;-62
2021/10/02 02:52:09;;;;;;;3.53;3.23;;;11.60;99.90;;;;;;5053235;28;20272;-62
2021/10/02 02:54:40;;;;;;;3.50;3.17;;;11.60;99.90;;;;;;5053330;28;20221;-62
2021/10/02 02:57:13;;;;;;;4.07;3.23;;;11.60;99.90;;;;;;5053172;28;20197;-63
2021/10/02 02:59:46;;;;;;;4.60;3.20;;;11.60;99.90;;;;;;5053172;28;20206;-62
2021/10/02 03:02:18;;;;;;;3.77;3.10;;;11.60;99.90;;;;;;5052866;28;20634;-62
2021/10/02 03:04:50;;;;;;;3.13;2.93;;;11.60;99.90;;;;;;5053118;28;20236;-63
2021/10/02 03:07:21;;;;;;;3.70;3.20;;;11.60;99.90;;;;;;5053073;28;20272;-61
2021/10/02 03:09:52;;;;;;;3.57;3.20;;;11.70;99.90;;;;;;5052966;28;20202;-62
2021/10/02 03:12:22;;;;;;;4.20;3.53;;;11.70;99.90;;;;;;5053092;28;20220;-62
2021/10/02 03:14:52;;;;;;;3.53;3.23;;;11.70;99.90;;;;;;5053041;28;20281;-62
2021/10/02 03:17:22;;;;;;;4.27;3.17;;;11.70;99.90;;;;;;5052864;28;20268;-63
2021/10/02 03:19:52;;;;;;;3.97;3.67;;;11.70;99.90;;;;;;5052682;28;20291;-62
2021/10/02 03:22:21;;;;;;;3.70;3.10;;;11.70;99.90;;;;;;5052507;28;20218;-62
2021/10/02 03:24:50;;;;;;;3.50;3.20;;;11.70;99.90;;;;;;5052870;28;20203;-62
2021/10/02 03:27:18;;;;;;;5.87;3.20;;;11.70;99.90;;;;;;5052520;28;20207;-62
2021/10/02 03:29:48;;;;;;;3.67;3.37;;;11.70;99.90;;;;;;5052225;28;20221;-62
2021/10/02 03:32:17;;;;;;;4.73;3.20;;;11.70;99.90;;;;;;5052400;28;20316;-62
2021/10/02 03:34:45;;;;;;;3.80;3.33;;;11.60;99.90;;;;;;5052329;28;20201;-62
2021/10/02 03:37:14;;;;;;;4.87;3.40;;;11.60;99.90;;;;;;5052542;28;20205;-62
2021/10/02 03:39:42;;;;;;;4.17;3.23;;;11.70;99.90;;;;;;5052364;28;20671;-62
2021/10/02 03:42:12;;;;;;;4.33;3.17;;;11.70;99.90;;;;;;5052695;28;20197;-62
2021/10/02 03:44:42;;;;;;;4.43;3.13;;;11.70;99.90;;;;;;5052332;28;20209;-62
2021/10/02 03:47:10;;;;;;;3.33;3.03;;;11.70;99.90;;;;;;5052057;28;20276;-63
2021/10/02 03:49:39;;;;;;;3.50;3.20;;;11.70;99.90;;;;;;5052575;28;20233;-63
2021/10/02 03:52:08;;;;;;;4.43;3.40;;;11.60;99.90;;;;;;5052359;28;20295;-62
2021/10/02 03:54:37;;;;;;;3.00;2.70;;;11.60;99.90;;;;;;5052548;28;20198;-63
2021/10/02 03:57:05;;;;;;;3.60;3.30;;;11.70;99.90;;;;;;5052396;28;20312;-63
2021/10/02 03:59:34;;;;;;;3.57;3.23;;;11.70;99.90;;;;;;5052421;28;20202;-62
2021/10/02 04:02:02;;;;;;;4.67;3.40;;;11.70;99.90;;;;;;5052304;28;20224;-62
2021/10/02 04:04:30;;;;;;;3.27;3.07;;;11.60;99.90;;;;;;5052176;28;20621;-63
2021/10/02 04:06:58;;;;;;;4.53;3.03;;;11.70;99.90;;;;;;5052387;28;20296;-61
2021/10/02 04:09:27;;;;;;;4.83;3.57;;;11.60;99.90;;;;;;5052138;28;20761;-63
2021/10/02 04:11:56;;;;;;;5.33;3.40;;;11.60;99.90;;;;;;5052319;28;20209;-62
2021/10/02 04:14:24;;;;;;;3.97;3.20;;;11.60;99.90;;;;;;5052449;28;20201;-63
2021/10/02 04:16:53;;;;;;;3.37;3.07;;;11.60;99.90;;;;;;5051843;28;20846;-61
2021/10/02 04:19:21;;;;;;;4.30;3.47;;;11.60;99.90;;;;;;5051985;28;20662;-63
2021/10/02 04:21:49;;;;;;;3.60;3.30;;;11.60;99.90;;;;;;5052230;28;20296;-62
2021/10/02 04:24:17;;;;;;;5.00;3.60;;;11.70;99.90;;;;;;5052024;28;20304;-63
2021/10/02 04:26:45;;;;;;;5.03;3.50;;;11.70;99.90;;;;;;5051841;28;20235;-63
2021/10/02 04:29:14;;;;;;;3.50;3.17;;;11.80;99.90;;;;;;5052014;28;20225;-64
2021/10/02 04:31:42;;;;;;;4.87;3.57;;;11.80;99.90;;;;;;5051668;28;20288;-63
2021/10/02 04:34:10;;;;;;;4.33;3.63;;;11.80;99.90;;;;;;5054252;28;20304;-63
2021/10/02 04:36:38;;;;;;;4.27;3.37;;;11.70;99.90;;;;;;5055661;28;20284;-62
2021/10/02 04:39:06;;;;;;;3.63;3.30;;;11.80;99.90;;;;;;5055512;28;20197;-62
2021/10/02 04:41:33;;;;;;;3.97;3.50;;;11.80;99.90;;;;;;5055677;28;20205;-64
2021/10/02 04:44:01;;;;;;;4.30;3.40;;;11.70;99.90;;;;;;5055499;28;20212;-62
2021/10/02 04:46:31;;;;;;;4.03;3.20;;;11.70;99.90;;;;;;5055389;28;20239;-62
2021/10/02 04:48:59;;;;;;;3.80;3.00;;;11.70;99.90;;;;;;5055196;28;20206;-63
2021/10/02 04:51:27;;;;;;;3.37;3.07;;;11.70;99.90;;;;;;5055527;28;20304;-62
2021/10/02 04:53:54;;;;;;;3.90;3.53;;;11.70;99.90;;;;;;5055074;28;20283;-63
2021/10/02 04:56:22;;;;;;;4.27;3.70;;;11.70;99.90;;;;;;5055568;28;20266;-63
2021/10/02 04:58:50;;;;;;;4.67;3.60;;;11.80;99.90;;;;;;5055295;28;20193;-62
2021/10/02 05:01:18;;;;;;;3.90;3.10;;;11.80;99.90;;;;;;5055179;28;20201;-63
2021/10/02 05:03:48;;;;;;;4.93;3.60;;;11.80;99.90;;;;;;5054968;28;20205;-63
2021/10/02 05:06:16;;;;;;;3.97;3.67;;;11.80;99.90;;;;;;5055221;28;20209;-62
2021/10/02 05:08:45;;;;;;;4.47;3.73;;;11.80;99.90;;;;;;5054677;28;20305;-62
2021/10/02 05:11:13;;;;;;;3.97;3.57;;;11.90;99.90;;;;;;5054894;28;20728;-63
2021/10/02 05:13:41;;;;;;;4.47;3.70;;;11.90;99.90;;;;;;5055278;28;20288;-63
2021/10/02 05:16:09;;;;;;;4.93;3.40;;;11.90;99.90;;;;;;5055095;28;20343;-63
2021/10/02 05:18:37;;;;;;;4.63;3.33;;;11.90;99.90;;;;;;5054582;28;20202;-63
2021/10/02 05:21:07;;;;;;;4.43;3.60;;;12.00;99.90;;;;;;5054939;28;20201;-63
2021/10/02 05:23:35;;;;;;;4.07;3.60;;;12.00;99.90;;;;;;5054693;28;20236;-62
2021/10/02 05:26:03;;;;;;;3.70;3.40;;;12.00;99.90;;;;;;5054692;28;20198;-63
2021/10/02 05:28:31;;;;;;;5.13;3.47;;;12.00;99.90;;;;;;5054564;28;20655;-63
2021/10/02 05:30:59;;;;;;;4.30;3.30;;;12.00;99.90;;;;;;5054719;28;20312;-63
2021/10/02 05:33:27;;;;;;;4.23;3.50;;;12.00;99.90;;;;;;5054670;28;20209;-63
2021/10/02 05:35:55;;;;;;;3.07;2.80;;;12.10;99.90;;;;;;5054760;28;20229;-62
2021/10/02 05:38:24;;;;;;;4.20;3.50;;;12.10;99.90;;;;;;5054568;28;20288;-63
2021/10/02 05:40:52;;;;;;;4.33;3.50;;;12.10;99.90;;;;;;5054319;28;20748;-62
2021/10/02 05:43:20;;;;;;;3.67;3.20;;;12.10;99.90;;;;;;5054515;28;20223;-63
2021/10/02 05:45:48;;;;;;;3.73;3.30;;;12.10;99.90;;;;;;5054418;28;20297;-63
2021/10/02 05:48:16;;;;;;;3.90;3.50;;;12.20;99.90;;;;;;5053941;28;20233;-62
2021/10/02 05:50:45;;;;;;;6.30;3.70;;;12.20;99.90;;;;;;5054000;28;20868;-63
2021/10/02 05:53:13;;;;;;;3.77;3.47;;;12.20;99.90;;;;;;5054193;28;20329;-64
2021/10/02 05:55:42;;;;;;;6.27;3.93;;;12.20;99.90;;;;;;5053997;28;20240;-63
2021/10/02 05:58:10;;;;;;;3.67;3.10;;;12.20;99.90;;;;;;5054196;28;20284;-63
2021/10/02 06:00:38;;;;;;;3.60;3.30;;;12.10;99.90;;;;;;5054249;28;20280;-63
2021/10/02 06:03:06;;;;;;;3.87;3.30;;;12.20;99.90;;;;;;5054180;28;20236;-63
2021/10/02 06:05:33;;;;;;;3.47;3.10;;;12.20;99.90;;;;;;5054277;28;20197;-63
2021/10/02 06:08:01;;;;;;;4.40;4.00;;;12.30;99.90;;;;;;5053956;28;20259;-62
2021/10/02 06:10:29;;;;;;;4.47;3.40;;;12.30;99.90;;;;;;5054035;28;20213;-64
2021/10/02 06:12:58;;;;;;;4.27;3.87;;;12.40;99.90;;;;;;5053913;28;20202;-62
2021/10/02 06:15:27;;;;;;;3.67;3.30;;;12.40;99.90;;;;;;5054114;28;20297;-62
2021/10/02 06:17:55;;;;;;;4.07;3.27;;;12.50;99.90;;;;;;5053658;28;20207;-62
2021/10/02 06:20:24;;;;;;;4.20;3.80;;;12.50;99.90;;;;;;5053457;28;20816;-62
2021/10/02 06:22:52;;;;;;;5.03;3.70;;;12.60;99.90;;;;;;5053403;28;20292;-62
2021/10/02 06:25:20;;;;;;;5.10;3.73;;;12.60;99.90;;;;;;5053794;28;20281;-63
2021/10/02 06:27:48;;;;;;;4.77;3.90;;;12.70;99.90;;;;;;5053845;28;20211;-63
2021/10/02 06:30:17;;;;;;;5.30;3.60;;;12.70;99.90;;;;;;5053405;28;20231;-63
2021/10/02 06:32:45;;;;;;;4.70;4.20;;;12.80;99.90;;;;;;5053525;28;20202;-63
2021/10/02 06:35:13;;;;;;;5.17;4.10;;;12.80;99.90;;;;;;5053627;28;20216;-62
2021/10/02 06:37:43;;;;;;;3.43;3.13;;;12.90;99.90;;;;;;5052688;28;20213;-63
2021/10/02 06:40:12;;;;;;;4.15;3.70;;;13.00;99.90;;;;;;5053720;28;20201;-63
2021/10/02 06:42:40;;;;;;;3.53;3.23;;;13.10;99.90;;;;;;5053088;28;20664;-63
2021/10/02 06:45:09;;;;;;;3.50;3.20;;;13.10;99.90;;;;;;5053072;28;20342;-63
2021/10/02 06:47:38;;;;;;;4.83;3.80;;;13.20;99.90;;;;;;5052877;28;20312;-63
2021/10/02 06:50:07;;;;;;;4.33;3.10;;;13.20;99.90;;;;;;5053103;28;20210;-63
2021/10/02 06:52:35;;;;;;;4.43;4.03;;;13.20;99.90;;;;;;5052947;28;20288;-62
2021/10/02 06:55:06;;;;;;;4.20;3.65;;;13.20;99.90;;;;;;5052916;28;20205;-63
2021/10/02 06:57:34;;;;;;;4.50;4.10;;;13.20;99.90;;;;;;5052500;28;20292;-62
2021/10/02 07:00:02;;;;;;;4.07;3.67;;;13.20;99.90;;;;;;5053022;28;20237;-64
2021/10/02 07:02:31;;;;;;;4.30;3.90;;;13.30;99.90;;;;;;5052891;28;20296;-63
2021/10/02 07:05:00;;;;;;;3.83;3.53;;;13.30;99.90;;;;;;5053196;28;20202;-63
2021/10/02 07:07:28;;;;;;;4.10;3.57;;;13.40;99.90;;;;;;5052865;28;20241;-63
2021/10/02 07:09:56;;;;;;;4.03;3.63;;;13.50;99.90;;;;;;5052860;28;20229;-64
2021/10/02 07:12:24;;;;;;;4.60;3.63;;;13.60;99.90;;;;;;5052932;28;20296;-64
2021/10/02 07:14:52;;;;;;;4.55;3.90;;;13.80;99.90;;;;;;5052477;28;20292;-63
2021/10/02 07:17:20;;;;;;;5.00;3.63;;;14.00;99.90;;;;;;5052479;28;20225;-63
2021/10/02 07:19:47;;;;;;;3.60;3.30;;;14.20;99.90;;;;;;5052603;28;20212;-63
2021/10/02 07:22:17;;;;;;;3.70;3.30;;;14.40;99.90;;;;;;5052432;28;20720;-64
2021/10/02 07:24:45;;;;;;;3.50;3.20;;;14.50;99.90;;;;;;5052704;28;20574;-63
2021/10/02 07:27:13;;;;;;;3.65;2.97;;;14.60;99.90;;;;;;5052502;28;20288;-63
2021/10/02 07:29:40;;;;;;;4.00;3.00;;;14.70;99.90;;;;;;5052899;28;20225;-63
2021/10/02 07:32:08;;;;;;;3.53;3.22;;;14.70;99.90;;;;;;5052451;28;20229;-63
2021/10/02 07:34:36;;;;;;;3.08;2.83;;;14.60;99.90;;;;;;5052463;28;20200;-64
2021/10/02 07:37:04;;;;;;;4.22;3.20;;;14.60;99.90;;;;;;5052640;28;20285;-63
2021/10/02 07:39:33;;;;;;;6.78;3.42;;;14.70;99.90;;;;;;5052568;28;20296;-62
2021/10/02 07:42:01;;;;;;;3.60;3.30;;;14.80;99.90;;;;;;5052459;28;20768;-64
2021/10/02 07:44:31;;;;;;;3.20;2.97;;;14.90;99.90;;;;;;5052516;28;20225;-64
2021/10/02 07:47:02;;;;;;;3.22;2.92;;;15.10;99.90;;;;;;5051878;28;20221;-63
2021/10/02 07:49:34;;;;;;;3.03;2.63;;;15.20;99.90;;;;;;5052662;28;20221;-63
2021/10/02 07:52:03;;;;;;;4.20;2.92;;;15.40;99.90;;;;;;5051477;28;20206;-67
2021/10/02 07:54:34;;;;;;;3.25;2.80;;;15.50;99.90;;;;;;5032122;28;20688;-64
2021/10/02 07:57:03;;;;;;;3.65;2.90;;;15.60;99.90;;;;;;5034413;28;20298;-64
2021/10/02 07:59:31;;;;;;;3.60;2.80;;;15.50;99.90;;;;;;5052150;28;20284;-64
2021/10/02 08:02:00;;;;;;;4.68;3.03;;;15.50;99.90;;;;;;5052003;28;20232;-70
2021/10/02 08:04:29;;;;;;;3.33;2.60;;;15.50;99.90;;;;;;5051880;28;20655;-72
2021/10/02 08:06:56;;;;;;;3.38;3.05;;;15.60;99.90;;;;;;5052048;28;20677;-70
2021/10/02 08:09:26;;;;;;;3.58;2.90;;;15.60;99.90;;;;;;5054955;28;20201;-71
2021/10/02 08:11:55;;;;;;;4.47;3.00;;;15.70;99.90;;;;;;5056242;28;20327;-73
2021/10/02 08:14:23;;;;;;;3.75;2.90;;;15.80;99.90;;;;;;5056150;28;20212;-71
2021/10/02 08:16:53;;;;;;;2.85;2.63;;;15.90;99.90;;;;;;5055881;28;20822;-63
2021/10/02 08:19:22;;;;;;;6.43;4.00;;;16.00;99.90;;;;;;5056104;28;20202;-63
2021/10/02 08:21:52;;;;;;;3.67;2.97;;;16.20;99.90;;;;;;5056116;28;20232;-64
2021/10/02 08:24:20;;;;;;;3.90;2.83;;;16.30;99.90;;;;;;5055505;28;20236;-70
2021/10/02 08:26:52;;;;;;;3.67;2.97;;;16.40;99.90;;;;;;5056106;28;20613;-71
2021/10/02 08:29:22;;;;;;;2.47;2.28;;;16.50;99.90;;;;;;5055640;28;20218;-65
2021/10/02 08:31:50;;;;;;;3.30;2.65;;;16.50;99.90;;;;;;5055712;28;20233;-64
2021/10/02 08:34:24;;;;;;;2.92;2.63;;;16.60;99.90;;;;;;5055901;28;20225;-65
2021/10/02 08:36:52;;;;;;;2.88;2.60;;;16.70;99.90;;;;;;5055383;28;20724;-65
2021/10/02 08:39:21;;;;;;;4.25;2.70;;;16.60;99.90;;;;;;5055704;28;20198;-65
2021/10/02 08:41:50;;;;;;;5.88;2.70;;;16.70;99.90;;;;;;5055714;28;20231;-64
2021/10/02 08:44:22;;;;;;;6.32;3.17;;;16.60;99.90;;;;;;5055455;28;20182;-62
2021/10/02 08:46:52;;;;;;;4.90;3.22;;;16.80;99.90;;;;;;5055058;28;20324;-62
2021/10/02 08:49:42;;;;;;;3.55;2.97;;;16.90;99.90;;;;;;5055236;28;20657;-64
2021/10/02 08:52:11;;;;;;;4.55;3.13;;;17.10;99.90;;;;;;5055384;28;20231;-62
2021/10/02 08:54:41;;;;;;;4.03;3.33;;;17.10;99.90;;;;;;5055177;28;20213;-62
2021/10/02 08:57:16;;;;;;;5.05;3.17;;;17.20;99.90;;;;;;5055060;28;20289;-62
2021/10/02 08:59:45;;;;;;;4.32;3.40;;;17.20;99.90;;;;;;5055386;28;20611;-63
2021/10/02 09:02:14;;;;;;;5.43;3.60;;;17.20;99.90;;;;;;5054895;28;20229;-64
2021/10/02 09:04:44;;;;;;;4.03;3.47;;;17.30;99.90;;;;;;5055203;28;20201;-61
2021/10/02 09:07:13;;;;;;;4.40;3.88;;;17.30;99.90;;;;;;5055359;28;20201;-61
2021/10/02 09:09:40;;;;;;;5.38;3.80;;;17.10;99.90;;;;;;5054611;28;20280;-62
2021/10/02 09:12:10;;;;;;;4.72;3.83;;;17.10;99.90;;;;;;5055094;28;20283;-62
2021/10/02 09:14:38;;;;;;;4.55;3.60;;;17.00;99.90;;;;;;5054931;28;20233;-63
2021/10/02 09:17:07;;;;;;;7.72;4.03;;;17.10;99.90;;;;;;5054797;28;20205;-64
2021/10/02 09:19:35;;;;;;;4.15;3.75;;;17.20;99.90;;;;;;5054351;28;20296;-65
2021/10/02 09:22:06;;;;;;;5.28;4.13;;;17.30;99.90;;;;;;5054026;28;20235;-65
2021/10/02 09:24:36;;;;;;;5.20;4.05;;;17.40;99.90;;;;;;5054396;28;20186;-66
2021/10/02 09:27:05;;;;;;;5.70;3.70;;;17.50;99.90;;;;;;5054325;28;20225;-66
2021/10/02 09:29:39;;;;;;;5.13;3.42;;;17.60;99.90;;;;;;5054636;28;20722;-65
2021/10/02 09:32:11;;;;;;;4.75;3.22;;;17.80;99.90;;;;;;5054649;28;20236;-65
2021/10/02 09:34:47;;;;;;;5.95;3.72;;;17.90;99.90;;;;;;5054592;28;20224;-67
2021/10/02 09:37:21;;;;;;;5.03;2.70;;;17.90;99.90;;;;;;5054712;28;20265;-66
2021/10/02 09:39:50;;;;;;;3.72;2.38;;;18.10;99.90;;;;;;5054575;28;20386;-66
2021/10/02 09:42:30;;;;;;;3.00;2.70;;;18.10;99.90;;;;;;5054759;28;20313;-64
2021/10/02 09:45:01;;;;;;;4.60;2.88;;;18.20;99.90;;;;;;5054814;28;20206;-66
2021/10/02 09:47:31;;;;;;;4.18;2.65;;;18.30;99.90;;;;;;5054307;28;20328;-65
2021/10/02 09:49:59;;;;;;;2.78;2.58;;;18.50;99.90;;;;;;5054451;28;20296;-65
2021/10/02 09:52:33;;;;;;;4.30;2.80;;;18.40;99.90;;;;;;5054529;28;20259;-65
2021/10/02 09:55:13;;;;;;;3.65;2.60;;;18.40;99.90;;;;;;5054269;28;20184;-66
2021/10/02 09:57:42;;;;;;;3.70;2.35;;;18.30;99.90;;;;;;5054348;28;20193;-65
2021/10/02 10:00:12;;;;;;;3.65;2.42;;;18.30;99.90;;;;;;5054312;28;20204;-65
2021/10/02 10:02:43;;;;;;;3.50;2.60;;;18.20;99.90;;;;;;5054003;28;20304;-65
2021/10/02 10:05:13;;;;;;;3.33;2.28;;;18.10;99.90;;;;;;5054358;28;20201;-67
2021/10/02 10:07:52;;;;;;;3.85;2.55;;;18.10;99.90;;;;;;5054097;28;20209;-65
2021/10/02 10:10:20;;;;;;;3.20;2.20;;;18.20;99.90;;;;;;5054242;28;20185;-66
2021/10/02 10:12:48;;;;;;;3.83;2.40;;;18.30;99.90;;;;;;5054035;28;20267;-65
2021/10/02 10:15:39;;;;;;;2.65;2.30;;;18.30;99.90;;;;;;5053901;28;20197;-66
2021/10/02 10:18:12;;;;;;;3.53;2.10;;;18.40;99.90;;;;;;5053950;28;20185;-66
2021/10/02 10:20:43;;;;;;;2.88;2.00;;;18.60;99.90;;;;;;5053951;28;20285;-65
2021/10/02 10:23:12;;;;;;;2.70;2.08;;;18.60;99.90;;;;;;5053592;28;20634;-65
2021/10/02 10:26:00;;;;;;;3.03;2.30;;;18.60;99.90;;;;;;5053837;28;20201;-66
2021/10/02 10:28:31;;;;;;;2.65;2.33;;;18.60;99.90;;;;;;5053870;28;20217;-66
2021/10/02 10:31:12;;;;;;;3.72;2.40;;;18.60;99.90;;;;;;5052980;28;20285;-66
2021/10/02 10:33:44;;;;;;;3.35;2.10;;;18.70;99.90;;;;;;5053617;28;20201;-66
2021/10/02 10:36:13;;;;;;;3.83;2.45;;;18.60;99.90;;;;;;5053593;28;20289;-65
2021/10/02 10:38:43;;;;;;;2.47;2.08;;;18.60;99.90;;;;;;5053416;28;20298;-64
2021/10/02 10:41:13;;;;;;;3.38;2.00;;;18.70;99.90;;;;;;5053584;28;20681;-66
2021/10/02 10:43:42;;;;;;;2.38;2.00;;;18.80;99.90;;;;;;5053570;28;20220;-66
2021/10/02 10:46:13;;;;;;;2.75;1.70;;;18.80;99.90;;;;;;5053263;28;20237;-66
2021/10/02 10:48:43;;;;;;;2.58;1.90;;;18.90;99.90;;;;;;5053254;28;20193;-64
2021/10/02 10:51:15;;;;;;;2.35;1.60;;;19.00;99.90;;;;;;5053346;28;20242;-65
2021/10/02 10:53:45;;;;;;;1.83;1.73;;;19.00;99.90;;;;;;5053010;28;20271;-65
2021/10/02 10:56:15;;;;;;;1.90;1.33;;;19.00;99.90;;;;;;5053234;28;20284;-65
2021/10/02 10:58:43;;;;;;;1.58;1.48;;;19.00;99.90;;;;;;5052764;28;20597;-66
2021/10/02 11:01:33;;;;;;;2.88;1.70;;;19.00;99.90;;;;;;5053053;28;20216;-65
2021/10/02 11:04:03;;;;;;;2.35;1.80;;;19.10;99.90;;;;;;5052980;28;20186;-65
2021/10/02 11:06:50;;;;;;;3.15;1.80;;;19.10;99.90;;;;;;5052855;28;20237;-64
2021/10/02 11:09:35;;;;;;;3.35;1.98;;;19.20;99.90;;;;;;5052571;28;20201;-66
2021/10/02 11:12:04;;;;;;;2.17;1.80;;;19.20;99.90;;;;;;5052798;28;20181;-66
2021/10/02 11:15:01;;;;;;;2.42;1.77;;;19.20;99.90;;;;;;5052838;28;20293;-64
2021/10/02 11:17:44;;;;;;;3.08;2.08;;;19.20;99.90;;;;;;5052908;28;20198;-65
2021/10/02 11:20:39;;;;;;;1.63;1.50;;;19.10;99.90;;;;;;5053135;28;20207;-65
2021/10/02 11:23:50;;;;;;;3.58;2.00;;;19.00;99.90;;;;;;5053083;28;20200;-66
2021/10/02 11:26:21;;;;;;;2.83;2.50;;;19.20;99.90;;;;;;5052903;28;20185;-63
2021/10/02 11:28:51;;;;;;;3.38;1.75;;;19.20;99.90;;;;;;5052580;28;20255;-65
2021/10/02 11:31:21;;;;;;;3.20;1.80;;;19.30;99.90;;;;;;5052771;28;20364;-64
2021/10/02 11:33:50;;;;;;;2.35;1.65;;;19.30;99.90;;;;;;5052634;28;20296;-66
2021/10/02 11:36:48;;;;;;;3.10;2.10;;;19.50;99.90;;;;;;5052954;28;20248;-65
2021/10/02 11:39:19;;;;;;;2.05;1.70;;;19.50;99.90;;;;;;5039628;28;20259;-64
2021/10/02 11:41:50;;;;;;;2.47;1.90;;;19.40;99.90;;;;;;5052496;28;20240;-66
2021/10/02 11:44:23;;;;;;;2.20;1.77;;;19.40;99.90;;;;;;5052829;28;20765;-66
2021/10/02 11:46:56;;;;;;;2.08;1.75;;;19.40;99.90;;;;;;5052175;28;20228;-66
2021/10/02 11:49:24;;;;;;;3.83;1.80;;;19.50;99.90;;;;;;5052468;28;20186;-66
2021/10/02 11:52:12;;;;;;;2.17;1.42;;;19.50;99.90;;;;;;5052595;28;20249;-66
2021/10/02 11:54:41;;;;;;;1.90;1.70;;;19.60;99.90;;;;;;5052425;28;20265;-64
2021/10/02 11:57:11;;;;;;;2.17;1.90;;;19.50;99.90;;;;;;5051927;28;20237;-66
2021/10/02 11:59:44;;;;;;;4.15;2.28;;;19.50;99.90;;;;;;5052387;28;20212;-64
2021/10/02 12:02:14;;;;;;;3.63;1.80;;;19.60;99.90;;;;;;5052204;28;20205;-65
2021/10/02 12:04:42;;;;;;;2.40;1.77;;;19.60;99.90;;;;;;5052069;28;20204;-66
2021/10/02 12:07:11;;;;;;;2.28;1.67;;;19.60;99.90;;;;;;5052376;28;20197;-65
2021/10/02 12:09:39;;;;;;;2.28;1.75;;;19.60;99.90;;;;;;5052088;28;20665;-66
2021/10/02 12:12:08;;;;;;;3.33;1.63;;;19.60;99.90;;;;;;5052550;28;20204;-65
2021/10/02 12:14:36;;;;;;;3.45;1.60;;;19.60;99.90;;;;;;5052167;28;20308;-65
2021/10/02 12:17:08;;;;;;;2.20;1.88;;;19.60;99.90;;;;;;5051725;28;20211;-66
2021/10/02 12:19:36;;;;;;;2.33;1.40;;;19.60;99.90;;;;;;5052012;28;20189;-66
2021/10/02 12:22:06;;;;;;;2.05;1.50;;;19.80;99.90;;;;;;5051998;28;20716;-65
2021/10/02 12:24:36;;;;;;;1.42;1.20;;;19.80;99.90;;;;;;5051936;28;20300;-65
2021/10/02 12:27:06;;;;;;;2.70;1.50;;;19.80;99.90;;;;;;5052220;28;20276;-65
2021/10/02 12:29:37;;;;;;;2.03;1.70;;;19.90;99.90;;;;;;5052152;28;20192;-65
2021/10/02 12:32:07;;;;;;;1.63;1.50;;;20.00;99.90;;;;;;5051781;28;20709;-65
2021/10/02 12:34:37;;;;;;;1.67;1.50;;;20.00;99.90;;;;;;5052256;28;20228;-65
2021/10/02 12:37:08;;;;;;;2.38;1.90;;;20.10;99.90;;;;;;5052136;28;20201;-65
2021/10/02 12:39:41;;;;;;;1.73;1.50;;;20.00;99.90;;;;;;5052093;28;20189;-64
2021/10/02 12:42:12;;;;;;;2.00;1.80;;;20.20;99.90;;;;;;5052460;28;20280;-65
2021/10/02 12:44:48;;;;;;;1.73;1.60;;;20.20;99.90;;;;;;5052162;28;20273;-65
2021/10/02 12:47:16;;;;;;;2.00;1.80;;;20.20;99.90;;;;;;5051645;28;20225;-65
2021/10/02 12:49:46;;;;;;;1.85;1.58;;;20.20;99.90;;;;;;5067052;28;20707;-65
2021/10/02 12:52:16;;;;;;;1.90;1.70;;;20.20;99.90;;;;;;5071764;28;20251;-65
2021/10/02 12:54:50;;;;;;;2.08;1.55;;;20.30;99.90;;;;;;5073184;28;20252;-65
2021/10/02 12:57:24;;;;;;;2.42;2.03;;;20.40;99.90;;;;;;5075508;28;20189;-66
2021/10/02 12:59:59;;;;;;;1.88;1.77;;;20.40;99.90;;;;;;5075548;28;20284;-64
2021/10/02 13:02:28;;;;;;;2.33;1.50;;;20.50;99.90;;;;;;5075374;28;20188;-66
2021/10/02 13:04:56;;;;;;;3.47;1.42;;;20.50;99.90;;;;;;5075021;28;20604;-65
2021/10/02 13:07:29;;;;;;;2.53;1.60;;;20.40;99.90;;;;;;5075058;28;20201;-65
2021/10/02 13:10:09;;;;;;;1.50;1.40;;;20.50;99.90;;;;;;5074729;28;20272;-63
2021/10/02 13:12:41;;;;;;;1.80;1.70;;;20.40;99.90;;;;;;5075056;28;20314;-65
2021/10/02 13:15:21;;;;;;;1.50;1.40;;;20.40;99.90;;;;;;5074949;28;20211;-65
2021/10/02 13:17:57;;;;;;;1.77;1.55;;;20.50;99.90;;;;;;5075094;28;20223;-65
2021/10/02 13:20:25;;;;;;;2.42;1.60;;;20.60;99.90;;;;;;5074394;28;20224;-64
2021/10/02 13:22:53;;;;;;;2.15;1.55;;;20.50;99.90;;;;;;5075046;28;20296;-65
2021/10/02 13:25:24;;;;;;;1.80;1.40;;;20.50;99.90;;;;;;5074622;28;20238;-64
2021/10/02 13:27:55;;;;;;;2.05;1.50;;;20.70;99.90;;;;;;5074638;28;20650;-66
2021/10/02 13:30:24;;;;;;;2.10;1.63;;;20.70;99.90;;;;;;5074999;28;20185;-65
2021/10/02 13:32:59;;;;;;;1.80;1.60;;;20.70;99.90;;;;;;5074704;28;20211;-65
2021/10/02 13:35:28;;;;;;;2.13;1.63;;;20.80;99.90;;;;;;5074811;28;20207;-65
2021/10/02 13:37:56;;;;;;;2.80;1.73;;;20.80;99.90;;;;;;5074863;28;20287;-65
2021/10/02 13:40:28;;;;;;;2.25;1.75;;;20.80;99.90;;;;;;5074600;28;20224;-65
2021/10/02 13:42:57;;;;;;;3.10;1.73;;;20.70;99.90;;;;;;5074805;28;20268;-65
2021/10/02 13:45:28;;;;;;;2.60;1.70;;;20.60;99.90;;;;;;5074616;28;20200;-65
2021/10/02 13:47:58;;;;;;;1.80;1.50;;;20.70;99.90;;;;;;5074100;28;20775;-65
2021/10/02 13:50:27;;;;;;;2.78;1.55;;;20.60;99.90;;;;;;5074671;28;20292;-66
2021/10/02 13:52:55;;;;;;;3.20;1.90;;;20.60;99.90;;;;;;5074439;28;20215;-64
2021/10/02 13:55:23;;;;;;;2.63;1.90;;;20.60;99.90;;;;;;5074136;28;20259;-64